Time;durP1;ratioP1;P1;durP2;ratioP2;P2;SDS_P1;SDS_P2;PMS_P1;PMS_P2;Temp;Humidity;BMP_temperature;BMP_pressure;BME280_temperature;BME280_humidity;BME280_pressure;Samples;Min_cycle;Max_cycle;Signal;HPM_P1;HPM_P2
2021/05/31 00:01:13;;;;;;;15.70;9.82;;;;;;;-145.50;100.00;65435.88;4972819;28;20073;-72
2021/05/31 00:03:42;;;;;;;16.30;9.73;;;;;;;-145.50;100.00;65435.88;4961227;28;20054;-72
2021/05/31 00:06:09;;;;;;;17.08;8.52;;;;;;;-145.50;100.00;65435.88;4974323;28;20491;-71
2021/05/31 00:08:36;;;;;;;14.25;9.60;;;;;;;-145.50;100.00;65435.88;4971598;28;20093;-71
2021/05/31 00:11:03;;;;;;;19.08;10.30;;;;;;;-145.50;100.00;65435.88;4978003;28;20085;-71
2021/05/31 00:13:30;;;;;;;15.85;10.23;;;;;;;-145.50;100.00;65435.88;4975807;28;20089;-73
2021/05/31 00:15:56;;;;;;;19.30;9.60;;;;;;;-145.50;100.00;65435.88;4966804;28;20142;-73
2021/05/31 00:18:24;;;;;;;22.27;11.82;;;;;;;-145.50;100.00;65435.88;4977868;28;20588;-73
2021/05/31 00:20:51;;;;;;;18.95;10.20;;;;;;;-145.50;100.00;65435.88;4968608;28;20637;-72
2021/05/31 00:23:18;;;;;;;14.77;9.60;;;;;;;-145.50;100.00;65435.88;4979653;28;20141;-73
2021/05/31 00:25:45;;;;;;;21.90;11.03;;;;;;;-145.50;100.00;65435.88;4970805;28;20712;-73
2021/05/31 00:28:13;;;;;;;20.13;10.60;;;;;;;-145.50;100.00;65435.88;4973670;28;21076;-73
2021/05/31 00:30:41;;;;;;;19.98;10.75;;;;;;;-145.50;100.00;65435.88;4973083;28;20085;-73
2021/05/31 00:33:08;;;;;;;;;;;;;;;-145.50;100.00;65435.88;4952409;28;20074;-73
2021/05/31 00:35:35;;;;;;;18.73;10.23;;;;;;;-145.50;100.00;65435.88;4976617;28;20759;-73
2021/05/31 00:38:02;;;;;;;18.95;10.88;;;;;;;-145.50;100.00;65435.88;4975154;28;20097;-73
2021/05/31 00:40:29;;;;;;;16.52;10.93;;;;;;;-145.50;100.00;65435.88;4977432;28;20160;-73
2021/05/31 00:42:56;;;;;;;21.60;10.70;;;;;;;-145.50;100.00;65435.88;4977886;28;20082;-73
2021/05/31 00:45:24;;;;;;;22.30;10.85;;;;;;;-145.50;100.00;65435.88;4970176;28;20896;-73
2021/05/31 00:47:50;;;;;;;20.27;11.60;;;;;;;-145.50;100.00;65435.88;4962884;28;20144;-73
2021/05/31 00:50:18;;;;;;;17.27;11.23;;;;;;;-145.50;100.00;65435.88;4975054;28;20457;-73
2021/05/31 00:52:45;;;;;;;17.50;10.77;;;;;;;-145.50;100.00;65435.88;4973344;28;20449;-73
2021/05/31 00:55:13;;;;;;;21.42;11.65;;;;;;;-145.50;100.00;65435.88;4966162;28;20140;-73
2021/05/31 00:57:39;;;;;;;18.73;10.93;;;;;;;-145.50;100.00;65435.88;4978760;28;20510;-72
2021/05/31 01:00:09;;;;;;;20.45;12.45;;;;;;;-145.50;100.00;65435.88;4982690;28;20218;-73
2021/05/31 01:02:38;;;;;;;21.58;13.35;;;;;;;-145.50;100.00;65435.88;4970889;28;20487;-73
2021/05/31 01:05:06;;;;;;;20.70;13.07;;;;;;;-145.50;100.00;65435.88;4972456;28;20101;-73
2021/05/31 01:07:36;;;;;;;22.10;11.88;;;;;;;-145.50;100.00;65435.88;4948583;28;20178;-73
2021/05/31 01:10:26;;;;;;;21.73;11.65;;;;;;;-145.50;100.00;65435.88;4965559;28;20140;-73
2021/05/31 01:13:03;;;;;;;24.08;12.65;;;;;;;-145.50;100.00;65435.88;4970309;28;20169;-73
2021/05/31 01:15:32;;;;;;;20.75;12.15;;;;;;;-145.50;100.00;65435.88;4978636;28;20077;-73
2021/05/31 01:18:04;;;;;;;21.52;11.52;;;;;;;-145.50;100.00;65435.88;4974254;28;20148;-73
2021/05/31 01:21:01;;;;;;;20.50;11.55;;;;;;;-145.50;100.00;65435.88;4968352;28;20061;-73
2021/05/31 01:23:31;;;;;;;21.92;11.95;;;;;;;-145.50;100.00;65435.88;4966907;28;20145;-73
2021/05/31 01:26:18;;;;;;;21.30;12.70;;;;;;;-145.50;100.00;65435.88;4973679;28;20561;-73
2021/05/31 01:29:06;;;;;;;22.42;13.20;;;;;;;-145.50;100.00;65435.88;4971285;28;20546;-73
2021/05/31 01:31:38;;;;;;;24.10;13.07;;;;;;;-145.50;100.00;65435.88;4960894;28;20074;-73
2021/05/31 01:34:08;;;;;;;23.83;12.63;;;;;;;-145.50;100.00;65435.88;4977219;28;20148;-73
2021/05/31 01:36:43;;;;;;;26.55;13.25;;;;;;;-145.50;100.00;65435.88;4964803;28;20058;-71
2021/05/31 01:39:12;;;;;;;23.17;13.38;;;;;;;-145.50;100.00;65435.88;4976640;28;20129;-71
2021/05/31 01:41:39;;;;;;;23.75;13.45;;;;;;;-145.50;100.00;65435.88;4966796;28;20050;-72
2021/05/31 01:44:06;;;;;;;23.35;13.65;;;;;;;-145.50;100.00;65435.88;4976359;28;20086;-72
2021/05/31 01:46:34;;;;;;;26.38;16.50;;;;;;;-145.50;100.00;65435.88;4968782;28;20169;-72
2021/05/31 01:49:01;;;;;;;27.27;14.38;;;;;;;-145.50;100.00;65435.88;4973844;28;20518;-72
2021/05/31 01:51:28;;;;;;;22.40;14.63;;;;;;;-145.50;100.00;65435.88;4969940;28;20142;-71
2021/05/31 01:53:55;;;;;;;24.90;14.38;;;;;;;-145.50;100.00;65435.88;4968312;28;20136;-72
2021/05/31 01:56:23;;;;;;;27.77;15.23;;;;;;;-145.50;100.00;65435.88;4976212;28;20550;-72
2021/05/31 01:58:51;;;;;;;23.55;14.00;;;;;;;-145.50;100.00;65435.88;4953431;28;20343;-72
2021/05/31 02:01:18;;;;;;;25.58;14.20;;;;;;;-145.50;100.00;65435.88;4975055;28;20497;-72
2021/05/31 02:03:45;;;;;;;24.67;12.85;;;;;;;-145.50;100.00;65435.88;4949679;28;20054;-72
2021/05/31 02:06:11;;;;;;;28.35;14.95;;;;;;;-145.50;100.00;65435.88;4970116;28;20541;-72
2021/05/31 02:08:38;;;;;;;24.58;14.02;;;;;;;-145.50;100.00;65435.88;4980102;28;20831;-72
2021/05/31 02:11:20;;;;;;;29.88;14.95;;;;;;;-145.50;100.00;65435.88;4972744;28;20053;-72
2021/05/31 02:13:49;;;;;;;26.80;15.23;;;;;;;-145.50;100.00;65435.88;4980282;28;23458;-72
2021/05/31 02:16:22;;;;;;;27.42;14.73;;;;;;;-145.50;100.00;65435.88;4973015;28;20152;-72
2021/05/31 02:18:51;;;;;;;22.92;15.45;;;;;;;-145.50;100.00;65435.88;4976133;28;20315;-72
2021/05/31 02:21:18;;;;;;;23.70;14.57;;;;;;;-145.50;100.00;65435.88;4970963;28;20588;-72
2021/05/31 02:23:46;;;;;;;25.00;15.40;;;;;;;-145.50;100.00;65435.88;4978796;28;20499;-72
2021/05/31 02:26:15;;;;;;;28.17;15.07;;;;;;;-145.50;100.00;65435.88;4978884;28;20133;-72
2021/05/31 02:28:45;;;;;;;28.85;15.82;;;;;;;-145.50;100.00;65435.88;4972094;28;20058;-72
2021/05/31 02:31:11;;;;;;;27.80;15.77;;;;;;;-145.50;100.00;65435.88;4974075;28;20527;-72
2021/05/31 02:33:38;;;;;;;24.38;14.77;;;;;;;-145.50;100.00;65435.88;4964703;28;20054;-72
2021/05/31 02:36:04;;;;;;;25.73;14.90;;;;;;;-145.50;100.00;65435.88;4963356;28;20082;-72
2021/05/31 02:38:31;;;;;;;27.50;16.20;;;;;;;-145.50;100.00;65435.88;4978044;28;20146;-72
2021/05/31 02:40:58;;;;;;;29.90;15.23;;;;;;;-145.50;100.00;65435.88;4982258;28;20100;-72
2021/05/31 02:43:24;;;;;;;23.98;14.75;;;;;;;-145.50;100.00;65435.88;4982465;28;20046;-72
2021/05/31 02:45:51;;;;;;;31.27;16.75;;;;;;;-145.50;100.00;65435.88;4967827;28;20572;-72
2021/05/31 02:48:18;;;;;;;28.63;16.17;;;;;;;-145.50;100.00;65435.88;4974784;28;20126;-72
2021/05/31 02:50:44;;;;;;;26.75;15.85;;;;;;;-145.50;100.00;65435.88;4974737;28;20046;-72
2021/05/31 02:53:11;;;;;;;27.45;15.80;;;;;;;-145.50;100.00;65435.88;4974863;28;20840;-72
2021/05/31 02:55:37;;;;;;;25.38;15.18;;;;;;;-145.50;100.00;65435.88;4974569;28;20152;-72
2021/05/31 02:58:04;;;;;;;27.35;15.75;;;;;;;-145.50;100.00;65435.88;4982129;28;20157;-71
2021/05/31 03:00:31;;;;;;;29.65;15.60;;;;;;;-145.50;100.00;65435.88;4974260;28;20503;-72
2021/05/31 03:02:58;;;;;;;26.33;15.68;;;;;;;-145.50;100.00;65435.88;4971493;28;20089;-71
2021/05/31 03:05:28;;;;;;;30.05;15.35;;;;;;;-145.50;100.00;65435.88;4977106;28;20062;-72
2021/05/31 03:07:56;;;;;;;28.02;15.70;;;;;;;-145.50;100.00;65435.88;4973087;28;20057;-71
2021/05/31 03:10:24;;;;;;;24.33;15.23;;;;;;;-145.50;100.00;65435.88;4975993;28;20078;-71
2021/05/31 03:12:50;;;;;;;33.45;17.02;;;;;;;-145.50;100.00;65435.88;4970513;28;20166;-72
2021/05/31 03:15:18;;;;;;;25.00;15.02;;;;;;;-145.50;100.00;65435.88;4973509;28;20089;-71
2021/05/31 03:17:46;;;;;;;26.80;15.45;;;;;;;-145.50;100.00;65435.88;4980016;28;20153;-71
2021/05/31 03:20:16;;;;;;;29.08;15.93;;;;;;;-145.50;100.00;65435.88;4970170;28;20058;-71
2021/05/31 03:22:43;;;;;;;30.95;15.73;;;;;;;-145.50;100.00;65435.88;4974603;28;20097;-72
2021/05/31 03:25:11;;;;;;;26.73;16.23;;;;;;;-145.50;100.00;65435.88;4954459;28;20097;-72
2021/05/31 03:27:37;;;;;;;25.02;16.02;;;;;;;-145.50;100.00;65435.88;4975276;28;20587;-72
2021/05/31 03:30:08;;;;;;;26.00;16.00;;;;;;;-145.50;100.00;65435.88;4967517;28;20078;-72
2021/05/31 03:32:35;;;;;;;28.15;17.13;;;;;;;-145.50;100.00;65435.88;4979081;28;20054;-72
2021/05/31 03:35:03;;;;;;;26.60;16.15;;;;;;;-145.50;100.00;65435.88;4979529;28;20124;-72
2021/05/31 03:37:30;;;;;;;26.73;15.52;;;;;;;-145.50;100.00;65435.88;4978367;28;20138;-72
2021/05/31 03:39:57;;;;;;;26.77;15.80;;;;;;;-145.50;100.00;65435.88;4974684;28;20077;-72
2021/05/31 03:42:23;;;;;;;27.02;15.85;;;;;;;-145.50;100.00;65435.88;4968968;28;20085;-72
2021/05/31 03:44:50;;;;;;;29.25;15.07;;;;;;;-145.50;100.00;65435.88;4975516;28;20104;-72
2021/05/31 03:47:16;;;;;;;25.60;15.90;;;;;;;-145.50;100.00;65435.88;4975238;28;20507;-71
2021/05/31 03:49:43;;;;;;;27.20;16.10;;;;;;;-145.50;100.00;65435.88;4976104;28;20430;-72
2021/05/31 03:52:09;;;;;;;32.50;16.70;;;;;;;-145.50;100.00;65435.88;4979043;28;20154;-72
2021/05/31 03:54:36;;;;;;;30.55;17.00;;;;;;;-145.50;100.00;65435.88;4965385;28;20129;-72
2021/05/31 03:57:03;;;;;;;34.30;16.50;;;;;;;-145.50;100.00;65435.88;4957097;28;20540;-72
2021/05/31 03:59:30;;;;;;;28.70;16.58;;;;;;;-145.50;100.00;65435.88;4969733;28;20481;-72
2021/05/31 04:01:57;;;;;;;29.67;16.30;;;;;;;-145.50;100.00;65435.88;4977478;28;20529;-72
2021/05/31 04:04:24;;;;;;;26.65;16.75;;;;;;;-145.50;100.00;65435.88;4980022;28;20153;-72
2021/05/31 04:12:03;;;;;;;33.42;16.95;;;;;;;-145.50;100.00;65435.88;4970360;28;20576;-72
2021/05/31 04:14:30;;;;;;;30.15;17.35;;;;;;;-145.50;100.00;65435.88;4977433;28;20069;-72
2021/05/31 04:16:56;;;;;;;34.10;17.88;;;;;;;-145.50;100.00;65435.88;4974114;28;20582;-72
2021/05/31 04:19:25;;;;;;;26.42;17.02;;;;;;;-145.50;100.00;65435.88;4976943;28;20108;-72
2021/05/31 04:21:52;;;;;;;;;;;;;;;-145.50;100.00;65435.88;4969813;28;20137;-72
2021/05/31 04:24:19;;;;;;;29.75;17.65;;;;;;;-145.50;100.00;65435.88;4969346;28;20029;-72
2021/05/31 04:26:46;;;;;;;30.15;18.45;;;;;;;-145.50;100.00;65435.88;4961444;28;20077;-72
2021/05/31 04:29:14;;;;;;;29.83;19.02;;;;;;;-145.50;100.00;65435.88;4969417;28;20109;-72
2021/05/31 04:31:41;;;;;;;29.90;18.20;;;;;;;-145.50;100.00;65435.88;4976941;28;20865;-72
2021/05/31 04:34:10;;;;;;;32.63;17.50;;;;;;;-145.50;100.00;65435.88;4948981;28;20137;-72
2021/05/31 04:36:37;;;;;;;29.48;18.45;;;;;;;-145.50;100.00;65435.88;4974763;28;20486;-72
2021/05/31 04:39:05;;;;;;;34.63;18.77;;;;;;;-145.50;100.00;65435.88;4954807;28;20150;-72
2021/05/31 04:41:33;;;;;;;29.50;18.50;;;;;;;-145.50;100.00;65435.88;4970714;28;20117;-73
2021/05/31 04:44:01;;;;;;;30.78;18.86;;;;;;;-145.50;100.00;65435.88;4966816;28;1180895;-72
2021/05/31 04:46:27;;;;;;;29.23;18.13;;;;;;;-145.50;100.00;65435.88;4972062;28;20137;-72
2021/05/31 04:48:54;;;;;;;31.27;18.58;;;;;;;-145.50;100.00;65435.88;4973046;28;20050;-72
2021/05/31 04:51:21;;;;;;;29.13;17.20;;;;;;;-145.50;100.00;65435.88;4951104;28;20054;-72
2021/05/31 04:53:48;;;;;;;33.38;19.10;;;;;;;-145.50;100.00;65435.88;4976215;28;20074;-72
2021/05/31 04:56:15;;;;;;;35.90;19.58;;;;;;;-145.50;100.00;65435.88;4979904;28;20183;-72
2021/05/31 04:58:42;;;;;;;29.35;19.00;;;;;;;-145.50;100.00;65435.88;4952995;28;20142;-72
2021/05/31 05:01:08;;;;;;;36.72;19.58;;;;;;;-145.50;100.00;65435.88;4975550;28;20085;-71
2021/05/31 05:03:35;;;;;;;37.03;18.60;;;;;;;-145.50;100.00;65435.88;4963607;28;20082;-71
2021/05/31 05:06:02;;;;;;;36.45;19.38;;;;;;;-145.50;100.00;65435.88;4976221;28;20058;-72
2021/05/31 05:08:28;;;;;;;32.35;19.58;;;;;;;-145.50;100.00;65435.88;4969437;28;20089;-71
2021/05/31 05:10:55;;;;;;;32.45;18.38;;;;;;;-145.50;100.00;65435.88;4974263;28;20566;-72
2021/05/31 05:13:22;;;;;;;33.45;20.20;;;;;;;-145.50;100.00;65435.88;4975719;28;20058;-73
2021/05/31 05:15:49;;;;;;;33.92;19.50;;;;;;;-145.50;100.00;65435.88;4972454;28;20085;-71
2021/05/31 05:18:16;;;;;;;37.53;19.52;;;;;;;-145.50;100.00;65435.88;4953697;28;20090;-71
2021/05/31 05:20:42;;;;;;;35.08;20.80;;;;;;;-145.50;100.00;65435.88;4967430;28;20050;-71
2021/05/31 05:23:09;;;;;;;36.10;18.55;;;;;;;-145.50;100.00;65435.88;4975533;28;20050;-74
2021/05/31 05:25:50;;;;;;;34.72;20.55;;;;;;;-145.50;100.00;65435.88;4971003;28;20050;-71
2021/05/31 05:28:16;;;;;;;37.50;19.80;;;;;;;-145.50;100.00;65435.88;4975756;28;20090;-73
2021/05/31 05:30:43;;;;;;;35.13;19.80;;;;;;;-145.50;100.00;65435.88;4973577;28;20050;-71
2021/05/31 05:33:09;;;;;;;37.63;19.60;;;;;;;-145.50;100.00;65435.88;4958753;28;20100;-73
2021/05/31 05:35:47;;;;;;;34.80;19.42;;;;;;;-145.50;100.00;65435.88;4978639;28;20597;-73
2021/05/31 05:48:32;;;;;;;40.22;21.55;;;;;;;-145.50;100.00;65435.88;4970177;28;20049;-73
2021/05/31 05:51:09;;;;;;;36.95;22.35;;;;;;;-145.50;100.00;65435.88;4975078;28;20483;-72
2021/05/31 05:53:42;;;;;;;33.17;20.70;;;;;;;-145.50;100.00;65435.88;4975550;28;20161;-71
2021/05/31 05:56:14;;;;;;;33.10;20.42;;;;;;;-145.50;100.00;65435.88;4969439;28;20082;-70
2021/05/31 05:58:40;;;;;;;36.58;20.70;;;;;;;-145.50;100.00;65435.88;4970282;28;20082;-71
2021/05/31 06:01:09;;;;;;;39.17;22.33;;;;;;;-145.50;100.00;65435.88;4967313;28;20050;-72
2021/05/31 06:03:35;;;;;;;35.83;20.95;;;;;;;-145.50;100.00;65435.88;4973649;28;20494;-73
2021/05/31 06:06:04;;;;;;;36.03;21.38;;;;;;;-145.50;100.00;65435.88;4976648;28;20061;-71
2021/05/31 06:08:33;;;;;;;40.95;21.48;;;;;;;-145.50;100.00;65435.88;4952554;28;20336;-71
2021/05/31 06:10:59;;;;;;;33.47;20.05;;;;;;;-145.50;100.00;65435.88;4977710;28;20089;-71
2021/05/31 06:13:26;;;;;;;36.70;20.10;;;;;;;-145.50;100.00;65435.88;4960363;28;20124;-73
2021/05/31 06:15:54;;;;;;;37.97;21.08;;;;;;;-145.50;100.00;65435.88;4972697;28;20129;-71
2021/05/31 06:18:21;;;;;;;32.92;20.92;;;;;;;-145.50;100.00;65435.88;4967212;28;20072;-73
2021/05/31 06:20:48;;;;;;;33.10;19.58;;;;;;;-145.50;100.00;65435.88;4959669;28;20129;-71
2021/05/31 06:23:14;;;;;;;31.65;20.35;;;;;;;-145.50;100.00;65435.88;4956990;28;20134;-70
2021/05/31 06:25:41;;;;;;;35.25;21.27;;;;;;;-145.50;100.00;65435.88;4970448;28;20090;-71
2021/05/31 06:28:08;;;;;;;37.92;20.35;;;;;;;-145.50;100.00;65435.88;4970797;28;20090;-71
2021/05/31 06:30:35;;;;;;;41.15;22.08;;;;;;;-145.50;100.00;65435.88;4965944;28;20105;-71
2021/05/31 06:33:03;;;;;;;38.15;22.13;;;;;;;-145.50;100.00;65435.88;4972991;28;20434;-71
2021/05/31 06:35:31;;;;;;;33.83;21.17;;;;;;;-145.50;100.00;65435.88;4969468;28;20062;-71
2021/05/31 06:37:57;;;;;;;40.72;20.75;;;;;;;-145.50;100.00;65435.88;4975644;28;20569;-71
2021/05/31 06:40:24;;;;;;;35.10;21.00;;;;;;;-145.50;100.00;65435.88;4957265;28;20193;-71
2021/05/31 06:42:53;;;;;;;39.03;20.85;;;;;;;-145.50;100.00;65435.88;4962137;28;20134;-71
2021/05/31 06:45:23;;;;;;;40.15;22.70;;;;;;;-145.50;100.00;65435.88;4959896;28;20501;-71
2021/05/31 06:47:51;;;;;;;39.58;20.83;;;;;;;-145.50;100.00;65435.88;4969069;28;20147;-71
2021/05/31 06:50:18;;;;;;;37.97;20.38;;;;;;;-145.50;100.00;65435.88;4963735;28;20380;-71
2021/05/31 06:52:45;;;;;;;38.55;21.70;;;;;;;-145.50;100.00;65435.88;4969855;28;20157;-71
2021/05/31 06:55:13;;;;;;;37.55;21.77;;;;;;;-145.50;100.00;65435.88;4975849;28;20498;-71
2021/05/31 06:57:41;;;;;;;40.72;21.48;;;;;;;-145.50;100.00;65435.88;4975521;28;20145;-71
2021/05/31 07:00:09;;;;;;;;;;;;;;;-145.50;100.00;65435.88;4975659;28;20062;-71
2021/05/31 07:02:35;;;;;;;30.17;19.63;;;;;;;-145.50;100.00;65435.88;4976916;28;19925;-71
2021/05/31 07:05:05;;;;;;;35.45;21.00;;;;;;;-145.50;100.00;65435.88;4956693;28;20707;-71
2021/05/31 07:07:31;;;;;;;;;;;;;;;-145.50;100.00;65435.88;4972869;28;20113;-71
2021/05/31 07:09:58;;;;;;;35.72;20.90;;;;;;;-145.50;100.00;65435.88;4952643;28;19976;-72
2021/05/31 07:12:25;;;;;;;33.13;19.50;;;;;;;-145.50;100.00;65435.88;4977091;28;20113;-71
2021/05/31 07:14:52;;;;;;;38.42;22.60;;;;;;;-145.50;100.00;65435.88;4960782;28;20571;-72
2021/05/31 07:17:19;;;;;;;38.45;20.95;;;;;;;-145.50;100.00;65435.88;4969904;28;20558;-71
2021/05/31 07:19:46;;;;;;;33.35;20.48;;;;;;;-145.50;100.00;65435.88;4979600;28;20064;-71
2021/05/31 07:22:23;;;;;;;40.67;22.70;;;;;;;-145.50;100.00;65435.88;4950415;28;20058;-71
2021/05/31 07:24:50;;;;;;;36.25;21.10;;;;;;;-145.50;100.00;65435.88;4960056;28;20078;-71
2021/05/31 07:27:18;;;;;;;34.50;22.35;;;;;;;-145.50;100.00;65435.88;4975780;28;20908;-71
2021/05/31 07:29:45;;;;;;;36.08;21.10;;;;;;;-145.50;100.00;65435.88;4965021;28;20117;-71
2021/05/31 07:32:12;;;;;;;36.13;20.50;;;;;;;-145.50;100.00;65435.88;4980105;28;20149;-71
2021/05/31 07:34:39;;;;;;;39.33;21.55;;;;;;;-145.50;100.00;65435.88;4975616;28;20877;-71
2021/05/31 07:37:06;;;;;;;38.17;20.77;;;;;;;-145.50;100.00;65435.88;4974303;28;20118;-71
2021/05/31 07:39:33;;;;;;;34.72;20.52;;;;;;;-145.50;100.00;65435.88;4973144;28;20136;-72
2021/05/31 07:42:00;;;;;;;33.83;19.85;;;;;;;-145.50;100.00;65435.88;4979076;28;20334;-71
2021/05/31 07:44:26;;;;;;;34.22;19.67;;;;;;;-145.50;100.00;65435.88;4974524;28;20509;-71
2021/05/31 07:46:54;;;;;;;32.03;18.60;;;;;;;-145.50;100.00;65435.88;4980295;28;20481;-71
2021/05/31 07:49:20;;;;;;;28.90;18.90;;;;;;;-145.50;100.00;65435.88;4977598;28;20081;-71
2021/05/31 07:51:48;;;;;;;32.78;19.27;;;;;;;-145.50;100.00;65435.88;4952730;28;20050;-71
2021/05/31 07:54:15;;;;;;;35.78;20.60;;;;;;;-145.50;100.00;65435.88;4978785;28;20078;-71
2021/05/31 07:56:42;;;;;;;35.88;22.02;;;;;;;-145.50;100.00;65435.88;4949184;28;20149;-71
2021/05/31 07:59:08;;;;;;;29.98;19.65;;;;;;;-145.50;100.00;65435.88;4980623;28;20142;-71
2021/05/31 08:01:35;;;;;;;37.38;21.13;;;;;;;-145.50;100.00;65435.88;4972151;28;20086;-71
2021/05/31 08:04:06;;;;;;;36.70;21.38;;;;;;;-145.50;100.00;65435.88;4972295;28;20390;-71
2021/05/31 08:06:34;;;;;;;40.38;22.95;;;;;;;-145.50;100.00;65435.88;4976191;28;20089;-71
2021/05/31 08:09:01;;;;;;;36.55;21.60;;;;;;;-145.50;100.00;65435.88;4974149;28;20050;-71
2021/05/31 08:11:28;;;;;;;32.53;20.15;;;;;;;-145.50;100.00;65435.88;4980678;28;21053;-74
2021/05/31 08:13:55;;;;;;;33.42;20.73;;;;;;;-145.50;100.00;65435.88;4972391;28;20054;-71
2021/05/31 08:16:21;;;;;;;36.13;21.05;;;;;;;-145.50;100.00;65435.88;4977905;28;20062;-71
2021/05/31 08:18:48;;;;;;;31.50;18.13;;;;;;;-145.50;100.00;65435.88;4968812;28;20054;-71
2021/05/31 08:21:15;;;;;;;30.60;19.35;;;;;;;-145.50;100.00;65435.88;4977702;28;20570;-71
2021/05/31 08:23:42;;;;;;;30.10;16.98;;;;;;;-145.50;100.00;65435.88;4977935;28;20578;-72
2021/05/31 08:26:08;;;;;;;27.65;18.05;;;;;;;-145.50;100.00;65435.88;4970793;28;20541;-71
2021/05/31 08:28:38;;;;;;;35.67;18.80;;;;;;;-145.50;100.00;65435.88;4979636;28;20140;-71
2021/05/31 08:31:05;;;;;;;31.17;17.95;;;;;;;-145.50;100.00;65435.88;4950209;28;20488;-72
2021/05/31 08:33:32;;;;;;;28.63;18.08;;;;;;;-145.50;100.00;65435.88;4973484;28;20843;-72
2021/05/31 08:35:59;;;;;;;32.78;20.02;;;;;;;-145.50;100.00;65435.88;4975426;28;20116;-75
2021/05/31 08:38:25;;;;;;;29.23;18.17;;;;;;;-145.50;100.00;65435.88;4962310;28;20062;-72
2021/05/31 08:40:52;;;;;;;23.17;16.02;;;;;;;-145.50;100.00;65435.88;4980516;28;20096;-72
2021/05/31 08:43:18;;;;;;;28.50;16.45;;;;;;;-145.50;100.00;65435.88;4969141;28;20516;-73
2021/05/31 08:45:45;;;;;;;30.90;17.05;;;;;;;-145.50;100.00;65435.88;4974756;28;20078;-73
2021/05/31 08:48:12;;;;;;;23.98;16.25;;;;;;;-145.50;100.00;65435.88;4966962;28;20050;-72
2021/05/31 08:50:39;;;;;;;28.58;16.45;;;;;;;-145.50;100.00;65435.88;4981855;28;20137;-70
2021/05/31 08:53:06;;;;;;;29.13;17.02;;;;;;;-145.50;100.00;65435.88;4979893;28;20872;-71
2021/05/31 08:55:34;;;;;;;21.58;15.45;;;;;;;-145.50;100.00;65435.88;4970605;28;20120;-71
2021/05/31 08:58:02;;;;;;;18.80;12.63;;;;;;;-145.50;100.00;65435.88;4976601;28;20140;-73
2021/05/31 09:00:32;;;;;;;18.15;12.73;;;;;;;-145.50;100.00;65435.88;4948055;28;20105;-73
2021/05/31 09:03:02;;;;;;;21.55;13.40;;;;;;;-145.50;100.00;65435.88;4960939;28;20054;-71
2021/05/31 09:05:40;;;;;;;19.75;12.73;;;;;;;-145.50;100.00;65435.88;4970164;28;20097;-71
2021/05/31 09:08:08;;;;;;;21.45;14.23;;;;;;;-145.50;100.00;65435.88;4961740;28;20505;-73
2021/05/31 09:10:45;;;;;;;22.35;15.00;;;;;;;-145.50;100.00;65435.88;4975161;28;20058;-71
2021/05/31 09:13:34;;;;;;;18.58;14.20;;;;;;;-145.50;100.00;65435.88;4973302;28;20140;-71
2021/05/31 09:16:15;;;;;;;21.35;13.45;;;;;;;-145.50;100.00;65435.88;4972855;28;20514;-72
2021/05/31 09:18:55;;;;;;;20.48;14.43;;;;;;;-145.50;100.00;65435.88;4971195;28;20124;-71
2021/05/31 09:21:29;;;;;;;23.73;13.65;;;;;;;-145.50;100.00;65435.88;4975400;28;20677;-71
2021/05/31 09:23:59;;;;;;;22.63;14.35;;;;;;;-145.50;100.00;65435.88;4954693;28;20102;-71
2021/05/31 09:26:26;;;;;;;20.30;14.35;;;;;;;-145.50;100.00;65435.88;4956118;28;20502;-71
2021/05/31 09:28:57;;;;;;;22.08;15.98;;;;;;;-145.50;100.00;65435.88;4967672;28;20136;-72
2021/05/31 09:31:25;;;;;;;17.85;13.15;;;;;;;-145.50;100.00;65435.88;4976269;28;20104;-70
2021/05/31 09:34:04;;;;;;;20.13;14.32;;;;;;;-145.50;100.00;65435.88;4971239;28;20062;-72
2021/05/31 09:36:34;;;;;;;19.20;14.77;;;;;;;-145.50;100.00;65435.88;4975003;28;20179;-72
2021/05/31 09:39:03;;;;;;;22.73;13.23;;;;;;;-145.50;100.00;65435.88;4981562;28;20058;-71
2021/05/31 09:41:32;;;;;;;18.45;13.27;;;;;;;-145.50;100.00;65435.88;4948515;28;20089;-71
2021/05/31 09:44:05;;;;;;;17.25;12.55;;;;;;;-145.50;100.00;65435.88;4974864;28;20197;-71
2021/05/31 09:46:43;;;;;;;13.65;9.98;;;;;;;-145.50;100.00;65435.88;4970815;28;20120;-71
2021/05/31 09:49:20;;;;;;;14.60;8.75;;;;;;;-145.50;100.00;65435.88;4980764;28;20564;-71
2021/05/31 09:51:52;;;;;;;12.95;10.32;;;;;;;-145.50;100.00;65435.88;4969621;28;20081;-71
2021/05/31 09:54:39;;;;;;;15.85;11.15;;;;;;;-145.50;100.00;65435.88;4973337;28;20125;-71
2021/05/31 09:57:28;;;;;;;14.13;9.32;;;;;;;-145.50;100.00;65435.88;4965000;28;20054;-71
2021/05/31 10:00:00;;;;;;;15.27;8.57;;;;;;;-145.50;100.00;65435.88;4979727;28;20050;-71
2021/05/31 10:02:41;;;;;;;11.02;8.20;;;;;;;-145.50;100.00;65435.88;4977850;28;20061;-71
2021/05/31 10:10:43;;;;;;;12.63;8.75;;;;;;;-145.50;100.00;65435.88;4964569;28;20141;-71
2021/05/31 10:13:09;;;;;;;13.93;7.15;;;;;;;-145.50;100.00;65435.88;4978134;28;20065;-72
2021/05/31 10:15:41;;;;;;;13.65;8.25;;;;;;;-145.50;100.00;65435.88;4970793;28;20054;-72
2021/05/31 10:18:10;;;;;;;10.23;7.80;;;;;;;-145.50;100.00;65435.88;4960604;28;20522;-72
2021/05/31 10:20:37;;;;;;;10.93;7.28;;;;;;;-145.50;100.00;65435.88;4968386;28;20153;-72
2021/05/31 10:23:06;;;;;;;13.93;7.80;;;;;;;-145.50;100.00;65435.88;4973620;28;20054;-73
2021/05/31 10:25:37;;;;;;;10.82;6.00;;;;;;;-145.50;100.00;65435.88;4951881;28;20586;-73
2021/05/31 10:28:09;;;;;;;10.50;5.95;;;;;;;-145.50;100.00;65435.88;4976024;28;20055;-72
2021/05/31 10:30:45;;;;;;;9.55;6.20;;;;;;;-145.50;100.00;65435.88;4963617;28;20162;-71
2021/05/31 10:33:14;;;;;;;;;;;;;;;-145.50;100.00;65435.88;4971680;28;20540;-72
2021/05/31 10:35:41;;;;;;;9.57;6.30;;;;;;;-145.50;100.00;65435.88;4959555;28;20024;-70
2021/05/31 10:38:15;;;;;;;12.60;7.90;;;;;;;-145.50;100.00;65435.88;4968416;28;20050;-71
2021/05/31 10:40:45;;;;;;;11.13;7.28;;;;;;;-145.50;100.00;65435.88;4975770;28;20129;-71
2021/05/31 10:43:14;;;;;;;9.55;7.10;;;;;;;-145.50;100.00;65435.88;4973202;28;20097;-71
2021/05/31 10:45:42;;;;;;;9.23;6.55;;;;;;;-145.50;100.00;65435.88;4980630;28;20113;-71
2021/05/31 10:48:17;;;;;;;10.70;6.78;;;;;;;-145.50;100.00;65435.88;4982276;28;20058;-71
2021/05/31 10:50:51;;;;;;;8.98;6.15;;;;;;;-145.50;100.00;65435.88;4971711;28;20105;-71
2021/05/31 10:53:21;;;;;;;8.57;6.22;;;;;;;-145.50;100.00;65435.88;4984911;28;20156;-71
2021/05/31 10:56:02;;;;;;;9.77;6.00;;;;;;;-145.50;100.00;65435.88;4975302;28;20096;-71
2021/05/31 10:58:45;;;;;;;8.27;5.78;;;;;;;-145.50;100.00;65435.88;4980937;28;20093;-71
2021/05/31 11:01:20;;;;;;;8.10;6.13;;;;;;;-145.50;100.00;65435.88;4971512;28;20058;-71
2021/05/31 11:03:52;;;;;;;9.00;6.57;;;;;;;-145.50;100.00;65435.88;4978689;28;20057;-71
2021/05/31 11:06:21;;;;;;;9.93;6.05;;;;;;;-145.50;100.00;65435.88;4966171;28;20058;-71
2021/05/31 11:08:55;;;;;;;11.70;5.65;;;;;;;-145.50;100.00;65435.88;4977750;28;20585;-70
2021/05/31 11:11:32;;;;;;;10.07;6.72;;;;;;;-145.50;100.00;65435.88;4981495;28;20104;-70
2021/05/31 11:14:00;;;;;;;8.25;5.65;;;;;;;-145.50;100.00;65435.88;4975691;28;20054;-71
2021/05/31 11:16:28;;;;;;;9.50;5.97;;;;;;;-145.50;100.00;65435.88;4979546;28;20542;-70
2021/05/31 11:19:00;;;;;;;10.65;6.03;;;;;;;-145.50;100.00;65435.88;4971319;28;20068;-70
2021/05/31 11:21:33;;;;;;;9.05;6.65;;;;;;;-145.50;100.00;65435.88;4973770;28;20058;-71
2021/05/31 11:24:07;;;;;;;8.95;5.70;;;;;;;-145.50;100.00;65435.88;4972726;28;20082;-70
2021/05/31 11:26:39;;;;;;;9.75;5.90;;;;;;;-145.50;100.00;65435.88;4975826;28;20561;-71